Time;durP1;ratioP1;P1;durP2;ratioP2;P2;SDS_P1;SDS_P2;PMS_P1;PMS_P2;Temp;Humidity;BMP_temperature;BMP_pressure;BME280_temperature;BME280_humidity;BME280_pressure;Samples;Min_cycle;Max_cycle;Signal;HPM_P1;HPM_P2
2022/06/20 00:02:22;;;;;;;10.70;2.30;;;;;;;18.58;100.00;101316.34;4972724;28;20036;-54
2022/06/20 00:04:50;;;;;;;9.30;2.27;;;;;;;20.23;100.00;101317.72;4970428;28;20307;-51
2022/06/20 00:07:16;;;;;;;7.50;1.80;;;;;;;20.17;100.00;101308.69;4970908;28;20285;-56
2022/06/20 00:09:42;;;;;;;8.52;1.92;;;;;;;20.34;100.00;101313.28;4976570;28;20350;-50
2022/06/20 00:12:14;;;;;;;14.20;2.70;;;;;;;20.34;100.00;101313.28;4978877;28;20027;-53
2022/06/20 00:14:40;;;;;;;8.13;2.30;;;;;;;18.95;100.00;101326.03;4972241;28;20045;-53
2022/06/20 00:17:11;;;;;;;9.10;2.17;;;;;;;19.00;100.00;101323.44;4979211;28;20667;-51
2022/06/20 00:19:37;;;;;;;10.80;2.57;;;;;;;18.81;100.00;101316.50;4972193;28;20032;-52
2022/06/20 00:22:03;;;;;;;16.27;3.28;;;;;;;18.71;100.00;101311.72;4973311;28;20340;-50
2022/06/20 00:24:30;;;;;;;12.68;2.05;;;;;;;18.96;100.00;101310.59;4975909;28;20173;-51
2022/06/20 00:26:56;;;;;;;7.87;1.93;;;;;;;19.12;100.00;101315.28;4975077;28;20030;-53
2022/06/20 00:29:21;;;;;;;7.53;2.22;;;;;;;18.85;100.00;101301.41;4972254;28;20312;-54
2022/06/20 00:31:47;;;;;;;11.52;2.55;;;;;;;19.49;100.00;101304.03;4976284;28;20077;-50
2022/06/20 00:34:13;;;;;;;8.73;2.45;;;;;;;19.06;100.00;101306.22;4980476;28;20103;-56
2022/06/20 00:36:39;;;;;;;11.05;1.88;;;;;;;19.04;100.00;101316.47;4974275;28;20043;-53
2022/06/20 00:39:05;;;;;;;18.38;2.70;;;;;;;20.30;100.00;101296.66;4981394;28;20058;-53
2022/06/20 00:41:33;;;;;;;6.38;2.30;;;;;;;19.17;100.00;101296.41;4980805;28;20042;-54
2022/06/20 00:44:01;;;;;;;10.03;2.20;;;;;;;18.90;100.00;101296.09;4976092;28;20035;-53
2022/06/20 00:46:35;;;;;;;7.90;2.00;;;;;;;19.37;100.00;101311.41;4980166;28;20301;-56
2022/06/20 00:49:19;;;;;;;12.90;2.20;;;;;;;18.96;100.00;101311.41;4978384;28;20292;-51
2022/06/20 00:52:02;;;;;;;10.90;2.33;;;;;;;18.91;100.00;101319.41;4976408;28;20266;-53
2022/06/20 00:54:42;;;;;;;7.20;1.87;;;;;;;18.12;100.00;101332.34;4973923;28;20272;-53
2022/06/20 00:57:31;;;;;;;7.43;2.13;;;;;;;18.41;100.00;101340.59;4976571;28;20285;-49
2022/06/20 01:00:17;;;;;;;9.80;1.70;;;;;;;19.46;100.00;101374.22;4972472;28;20345;-52
2022/06/20 01:02:47;;;;;;;7.80;2.30;;;;;;;19.32;100.00;101384.53;4973344;28;20324;-55
2022/06/20 01:05:33;;;;;;;5.63;1.80;;;;;;;19.77;100.00;101400.03;4976609;28;20297;-53
2022/06/20 01:08:06;;;;;;;9.87;2.17;;;;;;;19.98;100.00;101413.16;4966278;28;20282;-51
2022/06/20 01:10:41;;;;;;;8.77;1.87;;;;;;;19.38;100.00;101424.25;4991502;28;20273;-53
2022/06/20 01:13:14;;;;;;;6.67;1.97;;;;;;;19.39;100.00;101444.06;4977460;28;20282;-55
2022/06/20 01:15:43;;;;;;;4.80;2.00;;;;;;;19.54;100.00;101462.53;4970907;28;20296;-52
2022/06/20 01:18:22;;;;;;;13.37;2.47;;;;;;;19.45;100.00;101467.50;4978346;28;20261;-50
2022/06/20 01:20:48;;;;;;;11.07;1.90;;;;;;;18.73;100.00;101456.72;4979585;28;20350;-54
2022/06/20 01:23:44;;;;;;;6.70;1.33;;;;;;;18.09;100.00;101443.78;4977852;28;20292;-54
2022/06/20 01:26:28;;;;;;;11.90;2.23;;;;;;;18.55;100.00;101443.28;4975581;28;20280;-53
2022/06/20 01:28:59;;;;;;;9.27;2.10;;;;;;;19.20;100.00;101434.19;4980762;28;20273;-53
2022/06/20 01:31:25;;;;;;;8.83;2.50;;;;;;;19.42;100.00;101432.72;4974972;28;20279;-51
2022/06/20 01:33:53;;;;;;;9.73;1.57;;;;;;;19.45;100.00;101437.66;4977531;28;20269;-51
2022/06/20 01:39:06;;;;;;;6.53;2.23;;;;;;;19.38;100.00;101402.53;4977377;28;20276;-54
2022/06/20 01:44:17;;;;;;;11.17;1.97;;;;;;;18.95;100.00;101392.94;4975591;28;20043;-53
2022/06/20 01:46:44;;;;;;;7.10;1.90;;;;;;;18.69;100.00;101387.81;4973253;28;20277;-52
2022/06/20 01:49:14;;;;;;;7.72;1.85;;;;;;;19.44;100.00;101393.44;4974550;28;20031;-55
2022/06/20 01:51:54;;;;;;;8.83;1.77;;;;;;;19.17;100.00;101393.19;4972954;28;20035;-55
2022/06/20 01:54:23;;;;;;;8.33;2.07;;;;;;;18.59;100.00;101376.72;4976032;28;20356;-50
2022/06/20 01:56:51;;;;;;;12.97;2.17;;;;;;;18.83;100.00;101368.56;4972501;28;20323;-52
2022/06/20 01:59:26;;;;;;;10.40;1.83;;;;;;;17.94;100.00;101364.88;4974808;28;20299;-52
2022/06/20 02:01:53;;;;;;;12.13;2.33;;;;;;;18.11;100.00;101365.88;4977569;28;20264;-48
2022/06/20 02:04:24;;;;;;;7.30;2.30;;;;;;;18.69;100.00;101373.44;4981019;28;20285;-52
2022/06/20 02:06:51;;;;;;;9.27;2.50;;;;;;;18.08;100.00;101379.03;4978247;28;20038;-51
2022/06/20 02:09:17;;;;;;;13.03;2.83;;;;;;;18.02;100.00;101362.69;4982363;28;20277;-53
2022/06/20 02:11:45;;;;;;;9.18;2.40;;;;;;;18.88;100.00;101363.25;4974994;28;20316;-50
2022/06/20 02:14:41;;;;;;;7.83;1.80;;;;;;;19.13;100.00;101371.16;4973835;28;20027;-53
2022/06/20 02:17:12;;;;;;;6.23;1.97;;;;;;;19.03;100.00;101371.75;4974350;28;20274;-53
2022/06/20 02:19:47;;;;;;;9.67;2.63;;;;;;;19.21;100.00;101378.09;4979666;28;20332;-51
2022/06/20 02:22:13;;;;;;;8.10;2.20;;;;;;;19.27;100.00;101368.97;4971825;28;20289;-53
2022/06/20 02:24:44;;;;;;;8.18;2.20;;;;;;;19.16;100.00;101370.66;4972103;28;20353;-52
2022/06/20 02:27:17;;;;;;;5.57;1.93;;;;;;;18.80;100.00;101371.78;4971659;28;20043;-53
2022/06/20 02:29:42;;;;;;;13.20;1.97;;;;;;;18.23;100.00;101374.00;4976174;28;20268;-52
2022/06/20 02:32:26;;;;;;;9.07;2.08;;;;;;;19.03;100.00;101366.34;4974894;28;20340;-52
2022/06/20 02:34:53;;;;;;;14.53;3.17;;;;;;;19.00;100.00;101361.41;4980004;28;20053;-50
2022/06/20 02:37:24;;;;;;;12.53;2.43;;;;;;;18.96;100.00;101357.50;4975893;28;20277;-52
2022/06/20 02:40:00;;;;;;;10.73;2.30;;;;;;;20.07;100.00;101362.84;4971502;28;20283;-53
2022/06/20 02:42:41;;;;;;;9.70;2.20;;;;;;;19.79;100.00;101372.63;4977110;28;20278;-52
2022/06/20 02:45:12;;;;;;;13.13;3.17;;;;;;;19.51;100.00;101363.47;4977697;28;20312;-53
2022/06/20 02:47:41;;;;;;;11.07;2.50;;;;;;;19.68;100.00;101354.53;4980905;28;20284;-55
2022/06/20 02:50:08;;;;;;;10.47;2.87;;;;;;;19.30;100.00;101346.78;4976041;28;20289;-54
2022/06/20 02:52:44;;;;;;;7.80;2.47;;;;;;;20.02;100.00;101343.72;4978219;28;20250;-51
2022/06/20 02:55:13;;;;;;;13.60;3.00;;;;;;;19.82;100.00;101345.00;4973860;28;20279;-54
2022/06/20 02:57:44;;;;;;;11.23;2.40;;;;;;;19.16;100.00;101338.13;4973964;28;20304;-54
2022/06/20 03:00:39;;;;;;;7.83;2.10;;;;;;;19.55;100.00;101332.06;4971043;28;20280;-51
2022/06/20 03:03:14;;;;;;;14.87;3.00;;;;;;;19.87;100.00;101315.25;4977767;28;20278;-52
2022/06/20 03:05:39;;;;;;;14.47;2.80;;;;;;;19.33;100.00;101316.47;4969123;28;20274;-53
2022/06/20 03:08:05;;;;;;;13.95;2.65;;;;;;;19.51;100.00;101308.41;4972363;28;20277;-52
2022/06/20 03:10:52;;;;;;;9.45;2.30;;;;;;;18.79;100.00;101300.50;4975611;28;20043;-54
2022/06/20 03:13:21;;;;;;;7.82;2.72;;;;;;;18.63;100.00;101288.50;4971365;28;20035;-54
2022/06/20 03:15:48;;;;;;;10.93;2.07;;;;;;;18.68;100.00;101294.03;4972836;28;20069;-54
2022/06/20 03:18:17;;;;;;;8.50;2.43;;;;;;;19.96;100.00;101291.28;4976030;28;20285;-52
2022/06/20 03:20:44;;;;;;;10.07;1.97;;;;;;;19.72;100.00;101282.44;4971944;28;20272;-54
2022/06/20 03:23:18;;;;;;;9.30;2.30;;;;;;;18.86;100.00;101284.09;4975694;28;20347;-53
2022/06/20 03:25:44;;;;;;;8.07;2.33;;;;;;;18.77;100.00;101279.06;4977075;28;20281;-51
2022/06/20 03:28:15;;;;;;;6.35;2.42;;;;;;;18.62;100.00;101268.75;4974402;28;20291;-53
2022/06/20 03:30:42;;;;;;;8.67;2.40;;;;;;;18.74;100.00;101270.59;4975058;28;20066;-54
2022/06/20 03:33:13;;;;;;;12.73;3.50;;;;;;;18.62;100.00;101273.31;4975510;28;20268;-55
2022/06/20 03:35:42;;;;;;;9.07;2.87;;;;;;;18.69;100.00;101274.03;4975513;28;20042;-54
2022/06/20 03:38:11;;;;;;;8.13;2.67;;;;;;;18.69;100.00;101265.91;4971693;28;20273;-51
2022/06/20 03:40:39;;;;;;;19.43;3.67;;;;;;;18.60;100.00;101259.19;4972922;28;20277;-53
2022/06/20 03:43:08;;;;;;;8.50;2.50;;;;;;;18.36;100.00;101253.03;4969084;28;20278;-53
2022/06/20 03:45:38;;;;;;;8.87;3.00;;;;;;;18.64;100.00;101268.50;4970804;28;20340;-55
2022/06/20 03:48:12;;;;;;;10.97;2.87;;;;;;;18.37;100.00;101276.34;4969740;28;20280;-54
2022/06/20 03:50:45;;;;;;;11.43;4.30;;;;;;;18.33;100.00;101286.81;4981256;28;20265;-53
2022/06/20 03:53:36;;;;;;;8.60;2.80;;;;;;;18.32;100.00;101285.97;4972046;28;20262;-54
2022/06/20 03:56:11;;;;;;;10.83;3.60;;;;;;;18.48;100.00;101279.03;4976692;28;20277;-54
2022/06/20 03:58:57;;;;;;;20.73;3.43;;;;;;;19.25;100.00;101286.22;4977572;28;20273;-55
2022/06/20 04:01:33;;;;;;;8.27;2.63;;;;;;;18.73;100.00;101280.63;4973893;28;20284;-52
2022/06/20 04:04:27;;;;;;;9.43;2.60;;;;;;;19.13;100.00;101305.25;4979165;28;20290;-54
2022/06/20 04:07:01;;;;;;;10.23;2.33;;;;;;;19.74;100.00;101299.28;4977069;28;20284;-52
2022/06/20 04:12:31;;;;;;;8.63;2.70;;;;;;;18.72;100.00;101316.91;4977709;28;20288;-52
2022/06/20 04:15:18;;;;;;;9.97;2.57;;;;;;;19.35;100.00;101322.47;4976510;28;20304;-53
2022/06/20 04:18:42;;;;;;;10.90;2.97;;;;;;;18.68;100.00;101323.03;4971207;28;20277;-55
2022/06/20 04:21:24;;;;;;;14.50;3.67;;;;;;;18.55;100.00;101337.66;4902144;28;20104;-54
2022/06/20 04:24:00;;;;;;;38.77;14.97;;;;;;;18.87;100.00;101342.66;4974965;28;20300;-50
2022/06/20 04:26:32;;;;;;;17.20;7.32;;;;;;;19.82;100.00;101344.19;4976826;28;20339;-57
2022/06/20 04:29:09;;;;;;;12.90;4.23;;;;;;;19.26;100.00;101352.94;4977225;28;20039;-50
2022/06/20 04:31:58;;;;;;;11.73;3.17;;;;;;;19.04;100.00;101353.63;4975135;28;20297;-52
2022/06/20 04:34:31;;;;;;;11.07;3.10;;;;;;;18.75;100.00;101345.38;4975441;28;20258;-55
2022/06/20 04:37:11;;;;;;;18.30;3.47;;;;;;;19.46;100.00;101350.63;4978016;28;20284;-54
2022/06/20 04:40:01;;;;;;;12.97;2.37;;;;;;;19.59;100.00;101357.63;4978412;28;20280;-52
2022/06/20 04:43:02;;;;;;;8.97;2.83;;;;;;;19.47;100.00;101357.69;4980848;28;20281;-55
2022/06/20 04:45:42;;;;;;;8.33;3.20;;;;;;;19.78;100.00;101360.13;4975469;28;20273;-54
2022/06/20 04:48:19;;;;;;;9.57;2.30;;;;;;;19.53;100.00;101358.59;4979745;28;20261;-49
2022/06/20 04:50:56;;;;;;;7.70;2.00;;;;;;;18.85;100.00;101363.75;4977989;28;20289;-53
2022/06/20 04:53:25;;;;;;;8.38;2.88;;;;;;;18.96;100.00;101371.03;4977160;28;20262;-56
2022/06/20 04:55:54;;;;;;;8.77;2.40;;;;;;;18.96;100.00;101378.34;4977079;28;20062;-50
2022/06/20 04:58:28;;;;;;;11.87;2.07;;;;;;;19.45;100.00;101378.81;4974479;28;20277;-50
2022/06/20 05:00:54;;;;;;;9.33;2.87;;;;;;;20.10;100.00;101384.06;4977355;28;20344;-55
2022/06/20 05:03:24;;;;;;;17.48;3.47;;;;;;;19.61;100.00;101371.81;4975248;28;20331;-51
2022/06/20 05:05:52;;;;;;;9.67;2.33;;;;;;;19.88;100.00;101381.19;4979019;28;20208;-54
2022/06/20 05:08:34;;;;;;;14.37;2.40;;;;;;;19.95;100.00;101378.38;4975908;28;20273;-52
2022/06/20 05:11:05;;;;;;;5.73;1.53;;;;;;;20.20;100.00;101372.53;4976361;28;20264;-52
2022/06/20 05:13:44;;;;;;;6.77;1.70;;;;;;;20.37;100.00;101367.09;4980772;28;20296;-51
2022/06/20 05:16:22;;;;;;;7.30;1.93;;;;;;;19.65;100.00;101382.16;4980077;28;21215;-52
2022/06/20 05:18:54;;;;;;;7.53;1.90;;;;;;;19.62;100.00;101378.88;4972233;28;20779;-52
2022/06/20 05:21:24;;;;;;;4.17;1.77;;;;;;;19.20;100.00;101373.72;4977242;28;20265;-52
2022/06/20 05:23:58;;;;;;;9.87;2.30;;;;;;;19.48;100.00;101377.50;4976711;28;20304;-53
2022/06/20 05:26:30;;;;;;;9.03;2.10;;;;;;;19.44;100.00;101379.06;4979545;28;20280;-53
2022/06/20 05:28:59;;;;;;;6.63;2.23;;;;;;;19.66;100.00;101378.38;4974734;28;20289;-53
2022/06/20 05:31:43;;;;;;;10.57;2.30;;;;;;;19.93;100.00;101378.59;4977256;28;20261;-50
2022/06/20 05:34:09;;;;;;;5.90;2.20;;;;;;;20.18;100.00;101380.94;4975706;28;20409;-53
2022/06/20 05:36:57;;;;;;;4.27;1.60;;;;;;;19.83;100.00;101384.63;4976581;28;20285;-51
2022/06/20 05:39:31;;;;;;;8.33;2.47;;;;;;;19.76;100.00;101392.13;4975486;28;20090;-55
2022/06/20 05:41:58;;;;;;;11.10;1.87;;;;;;;19.59;100.00;101400.22;4980180;28;20299;-51
2022/06/20 05:44:24;;;;;;;8.67;2.00;;;;;;;19.71;100.00;101403.69;4975666;28;20320;-52
2022/06/20 05:47:13;;;;;;;6.95;1.95;;;;;;;19.79;100.00;101399.75;4975961;28;20308;-50
2022/06/20 05:49:43;;;;;;;8.93;1.87;;;;;;;19.59;100.00;101403.75;4955592;28;20040;-52
2022/06/20 05:52:18;;;;;;;10.00;2.47;;;;;;;20.47;100.00;101409.88;4973667;28;20281;-53
2022/06/20 05:54:53;;;;;;;7.53;2.30;;;;;;;19.52;100.00;101402.28;4970991;28;20290;-54
2022/06/20 05:57:23;;;;;;;11.83;2.50;;;;;;;19.18;100.00;101411.91;4970936;28;20270;-51
2022/06/20 05:59:54;;;;;;;5.33;2.13;;;;;;;19.26;100.00;101418.84;4968861;28;20403;-51
2022/06/20 06:02:34;;;;;;;10.93;2.20;;;;;;;19.24;100.00;101412.84;4974998;28;20283;-51
2022/06/20 06:05:40;;;;;;;10.47;2.50;;;;;;;19.42;100.00;101411.03;4973993;28;20274;-50
2022/06/20 06:08:22;;;;;;;7.27;2.37;;;;;;;20.76;100.00;101410.59;4973127;28;20268;-52
2022/06/20 06:11:01;;;;;;;6.77;2.20;;;;;;;20.30;100.00;101420.75;4973457;28;20286;-52
2022/06/20 06:13:51;;;;;;;10.53;2.00;;;;;;;19.43;100.00;101420.81;4971410;28;20270;-55
2022/06/20 06:19:13;;;;;;;7.07;2.42;;;;;;;20.24;100.00;101425.28;4969532;28;20272;-51
2022/06/20 06:21:39;;;;;;;5.90;2.43;;;;;;;20.02;100.00;101427.88;4971725;28;20035;-51
2022/06/20 06:24:09;;;;;;;8.23;2.70;;;;;;;19.68;100.00;101425.09;4976249;28;20361;-51
2022/06/20 06:26:36;;;;;;;12.17;3.53;;;;;;;19.81;100.00;101427.47;4971998;28;20039;-52
2022/06/20 06:29:05;;;;;;;9.50;2.33;;;;;;;19.67;100.00;101429.66;4974073;28;20276;-53
2022/06/20 06:31:40;;;;;;;7.90;2.70;;;;;;;19.66;100.00;101428.03;4972042;28;20278;-50
2022/06/20 06:34:22;;;;;;;8.70;2.97;;;;;;;19.75;100.00;101442.03;4976348;28;20273;-53
2022/06/20 06:36:57;;;;;;;15.27;2.47;;;;;;;19.96;100.00;101447.88;4970671;28;20289;-55
2022/06/20 06:39:33;;;;;;;7.27;2.60;;;;;;;20.14;100.00;101447.66;4975499;28;20261;-54
2022/06/20 06:42:03;;;;;;;13.45;3.45;;;;;;;20.39;100.00;101451.88;4972222;28;20280;-53
2022/06/20 06:44:44;;;;;;;14.10;2.50;;;;;;;20.37;100.00;101454.00;4971348;28;20031;-52
2022/06/20 06:47:18;;;;;;;13.07;3.50;;;;;;;20.47;100.00;101454.16;4969940;28;20292;-53
2022/06/20 06:49:47;;;;;;;10.87;3.17;;;;;;;20.79;100.00;101441.88;4972925;28;20039;-53
2022/06/20 06:52:25;;;;;;;7.70;2.80;;;;;;;20.29;100.00;101443.53;4970057;28;20065;-51
2022/06/20 06:54:59;;;;;;;5.70;2.43;;;;;;;20.41;100.00;101455.16;4970555;28;20074;-52
2022/06/20 06:57:36;;;;;;;10.50;2.77;;;;;;;20.75;100.00;101435.28;4970535;28;20050;-53
2022/06/20 07:00:05;;;;;;;9.63;2.60;;;;;;;21.17;100.00;101453.00;4972439;28;20042;-54
2022/06/20 07:02:42;;;;;;;8.40;3.00;;;;;;;21.32;100.00;101461.38;4971570;28;20035;-49
2022/06/20 07:05:21;;;;;;;9.67;2.60;;;;;;;21.41;100.00;101460.91;4972630;28;20069;-52
2022/06/20 07:07:57;;;;;;;6.97;2.40;;;;;;;21.24;100.00;101458.28;4972567;28;20033;-51
2022/06/20 07:10:33;;;;;;;4.87;1.97;;;;;;;21.83;100.00;101462.25;4974893;28;20042;-53
2022/06/20 07:13:06;;;;;;;12.60;2.63;;;;;;;20.91;100.00;101458.09;4974674;28;20039;-52
2022/06/20 07:15:34;;;;;;;11.37;3.03;;;;;;;22.43;100.00;101467.69;4972502;28;20031;-52
2022/06/20 07:18:04;;;;;;;8.33;2.80;;;;;;;22.20;100.00;101473.22;4974601;28;20069;-52
2022/06/20 07:20:35;;;;;;;9.87;3.00;;;;;;;22.05;100.00;101470.34;4976635;28;20088;-53
2022/06/20 07:23:04;;;;;;;7.13;2.30;;;;;;;21.63;100.00;101471.81;4972808;28;20031;-50
2022/06/20 07:25:37;;;;;;;8.67;2.70;;;;;;;21.76;100.00;101473.34;4972937;28;20099;-55
2022/06/20 07:28:24;;;;;;;8.20;2.47;;;;;;;21.80;100.00;101468.19;4990965;28;20041;-54
2022/06/20 07:31:03;;;;;;;7.07;2.75;;;;;;;21.68;100.00;101465.59;4969857;28;20059;-54
2022/06/20 07:33:38;;;;;;;8.47;2.50;;;;;;;21.32;100.00;101472.25;4971042;28;20057;-53
2022/06/20 07:36:07;;;;;;;4.73;2.40;;;;;;;20.96;100.00;101460.88;4974330;28;20103;-51
2022/06/20 07:38:48;;;;;;;8.83;2.40;;;;;;;21.74;100.00;101470.06;4971767;28;20180;-54
2022/06/20 07:41:20;;;;;;;10.30;3.03;;;;;;;21.66;100.00;101474.03;4976592;28;20058;-54
2022/06/20 07:44:01;;;;;;;6.60;2.63;;;;;;;21.97;100.00;101473.56;4971502;28;20055;-49
2022/06/20 07:46:39;;;;;;;8.03;2.53;;;;;;;23.17;100.00;101474.19;4977644;28;20043;-51
2022/06/20 07:49:14;;;;;;;9.17;2.50;;;;;;;22.87;100.00;101469.41;4981156;28;20576;-50
2022/06/20 07:51:45;;;;;;;5.30;2.20;;;;;;;22.00;100.00;101473.03;4978031;28;20043;-51
2022/06/20 07:54:36;;;;;;;6.97;2.40;;;;;;;22.46;100.00;101473.47;4972364;28;20057;-54
2022/06/20 07:57:10;;;;;;;10.47;2.10;;;;;;;22.25;100.00;101469.72;4974679;28;20065;-51
2022/06/20 07:59:44;;;;;;;4.23;2.30;;;;;;;21.29;100.00;101469.22;4957717;28;20185;-52
2022/06/20 08:02:38;;;;;;;9.33;2.63;;;;;;;22.70;100.00;101467.66;4969453;28;20039;-53
2022/06/20 08:05:06;;;;;;;9.00;2.27;;;;;;;22.56;100.00;101477.34;4973533;28;20023;-52
2022/06/20 08:07:46;;;;;;;10.17;3.57;;;;;;;23.25;100.00;101472.88;4972528;28;20070;-55
2022/06/20 08:10:29;;;;;;;8.23;3.20;;;;;;;23.01;100.00;101484.19;4973844;28;20045;-52
2022/06/20 08:13:07;;;;;;;7.20;3.10;;;;;;;23.56;100.00;101483.94;4975828;28;20031;-52
2022/06/20 08:15:40;;;;;;;10.83;3.40;;;;;;;22.75;100.00;101475.06;4977195;28;20064;-55
2022/06/20 08:18:06;;;;;;;10.97;3.93;;;;;;;23.76;100.00;101485.09;4972625;28;20035;-53
2022/06/20 08:20:38;;;;;;;11.05;3.25;;;;;;;23.85;100.00;101493.56;4974782;28;20038;-52
2022/06/20 08:23:28;;;;;;;9.10;2.70;;;;;;;23.30;100.00;101488.47;4972882;28;20069;-54
2022/06/20 08:26:00;;;;;;;9.17;2.90;;;;;;;23.66;100.00;101493.25;4969084;28;20067;-52
2022/06/20 08:28:34;;;;;;;7.10;2.40;;;;;;;23.69;100.00;101473.59;4968822;28;20035;-54
2022/06/20 08:31:08;;;;;;;6.40;2.67;;;;;;;23.77;100.00;101492.19;4972884;28;20111;-57
2022/06/20 08:33:46;;;;;;;11.33;3.33;;;;;;;23.39;99.67;101502.44;4975294;28;20046;-54
2022/06/20 08:36:37;;;;;;;9.57;2.63;;;;;;;24.30;94.75;101502.13;4977453;28;20039;-57
2022/06/20 08:39:12;;;;;;;8.80;3.30;;;;;;;23.89;99.11;101498.22;4976022;28;20039;-54
2022/06/20 08:42:11;;;;;;;9.65;2.53;;;;;;;23.55;97.46;101501.41;4976340;28;20119;-55
2022/06/20 08:44:36;;;;;;;12.67;5.40;;;;;;;24.71;96.26;101510.34;4973188;28;20043;-53
2022/06/20 08:47:14;;;;;;;15.02;3.15;;;;;;;23.96;94.64;101511.63;4972517;28;20057;-52
2022/06/20 08:50:01;;;;;;;17.27;8.73;;;;;;;24.35;99.99;101518.53;4970082;28;20107;-55
2022/06/20 08:52:49;;;;;;;9.75;3.47;;;;;;;24.39;95.39;101518.81;4973317;28;20046;-52
2022/06/20 08:55:38;;;;;;;8.30;2.57;;;;;;;24.07;90.02;101515.22;4975465;28;20046;-53
2022/06/20 08:58:09;;;;;;;16.13;6.87;;;;;;;24.10;95.34;101522.03;4972663;28;20099;-54
2022/06/20 09:00:41;;;;;;;9.70;2.57;;;;;;;24.57;86.54;101522.91;4977997;28;20082;-54
2022/06/20 09:03:19;;;;;;;15.00;7.80;;;;;;;23.91;90.07;101519.81;4975870;28;20057;-50
2022/06/20 09:05:57;;;;;;;21.43;9.70;;;;;;;23.65;89.33;101527.09;4970929;28;20046;-52
2022/06/20 09:08:32;;;;;;;19.47;8.80;;;;;;;24.34;98.02;101534.13;4971092;28;20046;-55
2022/06/20 09:11:00;;;;;;;28.90;12.43;;;;;;;24.77;90.25;101542.06;4968947;28;20034;-51
2022/06/20 09:13:42;;;;;;;21.10;6.97;;;;;;;24.57;91.64;101537.41;4974590;28;20035;-54
2022/06/20 09:16:35;;;;;;;36.00;17.00;;;;;;;24.25;87.87;101529.47;4973833;28;20046;-54
2022/06/20 09:19:27;;;;;;;33.27;15.23;;;;;;;24.62;85.08;101533.84;4976991;28;20094;-57
2022/06/20 09:21:59;;;;;;;19.53;8.40;;;;;;;24.56;84.76;101537.69;4969930;28;20074;-53
2022/06/20 09:24:43;;;;;;;27.93;12.83;;;;;;;24.64;91.97;101539.84;4974805;28;20043;-51
2022/06/20 09:27:18;;;;;;;25.20;9.97;;;;;;;25.44;86.54;101537.56;4975268;28;20038;-52
2022/06/20 09:29:59;;;;;;;15.13;3.67;;;;;;;25.58;82.32;101529.59;4977011;28;20038;-51
2022/06/20 09:32:43;;;;;;;14.00;5.53;;;;;;;25.26;92.21;101531.59;4971811;28;20052;-52
2022/06/20 09:35:55;;;;;;;26.27;8.53;;;;;;;25.52;90.03;101523.31;4977785;28;20067;-54
2022/06/20 09:39:16;;;;;;;18.03;5.63;;;;;;;24.79;90.83;101532.78;4974593;28;20089;-55
2022/06/20 09:41:55;;;;;;;56.10;19.03;;;;;;;25.25;84.63;101534.59;5000351;28;20042;-53
2022/06/20 09:44:30;;;;;;;21.60;6.17;;;;;;;25.52;80.21;101538.94;4981074;28;20093;-56
2022/06/20 09:47:20;;;;;;;45.10;17.87;;;;;;;26.87;74.88;101536.13;4976148;28;20034;-52
2022/06/20 09:49:54;;;;;;;12.30;4.87;;;;;;;26.94;77.39;101533.84;4977484;28;20039;-55
2022/06/20 09:52:35;;;;;;;39.03;14.73;;;;;;;26.75;66.01;101536.50;4977018;28;20098;-57
2022/06/20 09:55:15;;;;;;;12.50;4.33;;;;;;;26.58;68.82;101534.97;4978024;28;20046;-53
2022/06/20 09:57:54;;;;;;;8.50;2.60;;;;;;;26.19;66.40;101542.13;4970484;28;20093;-56
2022/06/20 10:00:55;;;;;;;28.07;11.43;;;;;;;28.28;66.94;101536.03;4972718;28;20069;-53
2022/06/20 10:03:54;;;;;;;27.50;11.93;;;;;;;29.40;57.68;101555.53;4972104;28;20138;-53
2022/06/20 10:07:00;;;;;;;10.63;3.53;;;;;;;28.66;60.28;101541.47;4974348;28;20038;-55
2022/06/20 10:09:25;;;;;;;19.80;8.10;;;;;;;28.02;62.45;101550.16;4971926;28;20054;-55
2022/06/20 10:12:19;;;;;;;19.92;7.80;;;;;;;27.71;60.81;101556.88;4969761;28;20032;-54
2022/06/20 10:14:51;;;;;;;11.80;3.90;;;;;;;28.65;57.26;101556.34;4974934;28;20040;-55
2022/06/20 10:17:23;;;;;;;17.42;6.47;;;;;;;31.07;51.36;101556.06;4967988;28;20038;-53
2022/06/20 10:20:06;;;;;;;22.30;10.35;;;;;;;30.66;52.82;101547.75;4965517;28;20834;-55
2022/06/20 10:22:48;;;;;;;16.58;5.90;;;;;;;29.34;56.96;101552.88;4967443;28;20043;-55
2022/06/20 10:26:05;;;;;;;17.70;8.02;;;;;;;29.26;58.04;101563.81;4967474;28;20035;-57
2022/06/20 10:29:06;;;;;;;22.13;9.40;;;;;;;30.55;48.83;101562.91;4933839;28;20047;-53
2022/06/20 10:31:43;;;;;;;11.27;4.88;;;;;;;30.64;47.75;101558.28;4935480;28;20047;-55
2022/06/20 10:34:39;;;;;;;9.45;2.95;;;;;;;29.24;50.12;101569.59;4972078;28;20088;-53
2022/06/20 10:37:23;;;;;;;8.35;2.97;;;;;;;30.11;47.55;101581.91;4967893;28;20054;-55
2022/06/20 10:40:01;;;;;;;9.95;3.30;;;;;;;31.57;47.39;101580.63;4968761;28;20150;-54
2022/06/20 10:42:46;;;;;;;12.30;4.20;;;;;;;31.24;42.40;101578.25;4971155;28;20070;-53
2022/06/20 10:45:18;;;;;;;22.88;13.18;;;;;;;32.35;40.55;101580.25;4973594;28;20035;-54
2022/06/20 10:48:14;;;;;;;55.55;31.38;;;;;;;31.13;40.18;101574.13;4970684;28;20031;-53
2022/06/20 10:50:49;;;;;;;12.20;5.68;;;;;;;30.41;46.96;101580.34;4975776;28;20038;-52
2022/06/20 10:53:21;;;;;;;11.23;5.18;;;;;;;30.37;47.67;101581.31;4972939;28;20068;-54
2022/06/20 10:56:22;;;;;;;5.13;2.45;;;;;;;32.26;42.74;101577.47;4981265;28;20039;-54
2022/06/20 10:59:13;;;;;;;16.48;5.95;;;;;;;32.89;37.79;101577.06;4977719;28;20061;-55
2022/06/20 11:02:01;;;;;;;6.35;2.00;;;;;;;33.07;36.76;101583.34;4975236;28;20063;-54
2022/06/20 11:04:48;;;;;;;6.38;2.60;;;;;;;32.40;37.58;101594.75;4977750;28;20043;-55
2022/06/20 11:07:16;;;;;;;8.80;4.43;;;;;;;30.25;47.77;101585.41;4967985;28;20093;-55
2022/06/20 11:09:50;;;;;;;8.32;3.83;;;;;;;30.19;46.00;101598.50;4977410;28;20035;-55
2022/06/20 11:12:40;;;;;;;11.77;3.80;;;;;;;29.12;45.95;101596.84;4972399;28;20081;-59
2022/06/20 11:15:19;;;;;;;10.70;5.00;;;;;;;30.65;43.48;101595.00;4972832;28;20027;-54
2022/06/20 11:18:07;;;;;;;15.57;7.00;;;;;;;30.47;47.13;101595.66;4972463;28;20118;-53
2022/06/20 11:20:44;;;;;;;56.60;33.10;;;;;;;30.45;48.04;101597.94;4972034;28;20120;-49
2022/06/20 11:23:21;;;;;;;8.50;3.80;;;;;;;31.11;45.68;101599.31;4975102;28;20030;-51
2022/06/20 11:26:03;;;;;;;23.88;12.82;;;;;;;32.59;44.26;101602.69;4981521;28;20050;-53
2022/06/20 11:28:31;;;;;;;13.95;7.95;;;;;;;33.55;42.49;101603.53;4976387;28;20039;-52
2022/06/20 11:31:24;;;;;;;12.82;6.38;;;;;;;33.95;43.07;101610.59;4972990;28;20062;-55
2022/06/20 11:34:15;;;;;;;12.73;5.45;;;;;;;34.95;41.92;101611.84;4973343;28;20054;-54
2022/06/20 11:37:11;;;;;;;12.82;5.70;;;;;;;34.68;36.58;101607.72;4975893;28;20040;-53
2022/06/20 11:40:08;;;;;;;16.00;6.45;;;;;;;35.27;36.99;101617.66;4971285;28;20038;-52
2022/06/20 11:42:52;;;;;;;;;;;;;;;34.23;35.43;101623.16;4977957;28;20093;-54
2022/06/20 11:45:32;;;;;;;11.68;5.72;;;;;;;34.06;38.46;101622.13;4972337;28;20000;-55
2022/06/20 11:48:27;;;;;;;10.80;5.38;;;;;;;32.85;39.37;101620.41;4975100;28;20042;-52
2022/06/20 11:51:09;;;;;;;12.00;3.28;;;;;;;33.18;38.34;101622.59;4974137;28;20026;-54
2022/06/20 11:53:46;;;;;;;11.02;4.10;;;;;;;33.97;38.00;101629.72;4976037;28;20035;-52
2022/06/20 11:56:36;;;;;;;8.10;4.05;;;;;;;35.10;38.79;101634.59;4968977;28;20102;-50
2022/06/20 11:59:23;;;;;;;12.70;4.68;;;;;;;36.90;34.14;101631.97;4961217;28;20111;-54
2022/06/20 12:02:01;;;;;;;7.75;3.70;;;;;;;34.62;39.05;101639.66;4971704;28;20051;-55
2022/06/20 12:04:37;;;;;;;7.40;2.42;;;;;;;34.61;34.66;101638.84;4974361;28;20024;-54
2022/06/20 12:07:38;;;;;;;9.18;3.38;;;;;;;35.04;33.03;101645.13;4975165;28;20868;-55
2022/06/20 12:10:17;;;;;;;5.22;2.33;;;;;;;34.96;35.99;101638.47;4979578;28;20035;-54
2022/06/20 12:13:01;;;;;;;9.88;2.63;;;;;;;34.22;32.43;101627.88;4972063;28;20035;-54